Time;durP1;ratioP1;P1;durP2;ratioP2;P2;SDS_P1;SDS_P2;PMS_P1;PMS_P2;Temp;Humidity;BMP_temperature;BMP_pressure;BME280_temperature;BME280_humidity;BME280_pressure;Samples;Min_cycle;Max_cycle;Signal;HPM_P1;HPM_P2
2024/04/11 00:01:50;;;;;;;6.78;4.25;;;;;;;;;;5407620;26;20023;-72
2024/04/11 00:04:15;;;;;;;5.82;3.53;;;;;;;;;;5406822;26;19996;-72
2024/04/11 00:06:40;;;;;;;8.38;4.05;;;;;;;;;;5411485;26;20333;-72
2024/04/11 00:09:05;;;;;;;8.05;4.72;;;;;;;;;;5409016;26;20372;-72
2024/04/11 00:11:30;;;;;;;6.80;3.83;;;;;;;;;;5405794;26;20007;-73
2024/04/11 00:13:56;;;;;;;10.05;4.50;;;;;;;;;;5401058;26;20017;-73
2024/04/11 00:16:21;;;;;;;6.32;3.63;;;;;;;;;;5400696;26;20003;-72
2024/04/11 00:18:47;;;;;;;8.70;3.85;;;;;;;;;;5400427;26;20019;-73
2024/04/11 00:21:12;;;;;;;6.88;3.80;;;;;;;;;;5411323;26;20004;-72
2024/04/11 00:23:37;;;;;;;8.38;4.20;;;;;;;;;;5403871;26;19995;-72
2024/04/11 00:26:04;;;;;;;6.47;3.67;;;;;;;;;;5400831;26;20022;-72
2024/04/11 00:28:29;;;;;;;7.05;3.95;;;;;;;;;;5401505;26;19995;-72
2024/04/11 00:30:54;;;;;;;8.15;3.67;;;;;;;;;;5402115;26;20014;-72
2024/04/11 00:33:20;;;;;;;9.25;4.15;;;;;;;;;;5395957;26;20423;-72
2024/04/11 00:35:49;;;;;;;7.40;3.90;;;;;;;;;;5408703;26;20003;-72
2024/04/11 00:38:16;;;;;;;7.30;4.05;;;;;;;;;;5407684;26;20015;-72
2024/04/11 00:40:41;;;;;;;7.75;3.83;;;;;;;;;;5403729;26;20004;-72
2024/04/11 00:43:08;;;;;;;7.55;4.55;;;;;;;;;;5404952;26;20006;-72
2024/04/11 00:45:38;;;;;;;6.93;4.05;;;;;;;;;;5399895;26;20480;-72
2024/04/11 00:48:04;;;;;;;9.27;4.20;;;;;;;;;;5411317;26;20502;-72
2024/04/11 00:50:29;;;;;;;9.18;4.88;;;;;;;;;;5409603;26;20046;-72
2024/04/11 00:52:54;;;;;;;7.93;3.97;;;;;;;;;;5403585;26;20469;-72
2024/04/11 00:55:20;;;;;;;4.10;2.60;;;;;;;;;;5403855;26;20363;-72
2024/04/11 00:57:46;;;;;;;9.07;3.13;;;;;;;;;;5396932;26;20000;-72
2024/04/11 01:00:11;;;;;;;5.93;3.95;;;;;;;;;;5404307;26;20014;-72
2024/04/11 01:02:37;;;;;;;8.63;4.75;;;;;;;;;;5410796;26;19995;-72
2024/04/11 01:05:03;;;;;;;6.75;4.40;;;;;;;;;;5406241;26;20011;-73
2024/04/11 01:07:29;;;;;;;6.35;3.92;;;;;;;;;;5405470;26;20091;-73
2024/04/11 01:09:54;;;;;;;8.23;4.88;;;;;;;;;;5399484;26;20004;-72
2024/04/11 01:12:21;;;;;;;10.15;4.20;;;;;;;;;;5399539;26;20492;-72
2024/04/11 01:14:49;;;;;;;7.75;4.50;;;;;;;;;;5406199;26;20003;-72
2024/04/11 01:17:15;;;;;;;10.05;4.50;;;;;;;;;;5409846;26;19999;-72
2024/04/11 01:19:44;;;;;;;9.25;4.60;;;;;;;;;;5405265;26;20014;-72
2024/04/11 01:22:10;;;;;;;9.15;5.03;;;;;;;;;;5398831;26;20000;-72
2024/04/11 01:24:39;;;;;;;8.93;5.38;;;;;;;;;;5398244;26;20004;-73
2024/04/11 01:27:05;;;;;;;8.88;4.68;;;;;;;;;;5398557;26;20871;-72
2024/04/11 01:29:30;;;;;;;5.78;3.25;;;;;;;;;;5405248;26;20073;-72
2024/04/11 01:31:57;;;;;;;9.15;3.97;;;;;;;;;;5410529;26;20004;-72
2024/04/11 01:34:22;;;;;;;5.60;3.53;;;;;;;;;;5408846;26;19999;-73
2024/04/11 01:36:49;;;;;;;6.78;4.00;;;;;;;;;;5407122;26;20019;-73
2024/04/11 01:39:14;;;;;;;7.07;4.22;;;;;;;;;;5404775;26;20010;-72
2024/04/11 01:41:39;;;;;;;7.72;3.83;;;;;;;;;;5396320;26;20000;-73
2024/04/11 01:44:05;;;;;;;10.35;5.25;;;;;;;;;;5412680;26;20034;-72
2024/04/11 01:46:30;;;;;;;13.18;6.35;;;;;;;;;;5411840;26;20018;-72
2024/04/11 01:48:55;;;;;;;8.55;4.30;;;;;;;;;;5409612;26;20478;-73
2024/04/11 01:51:20;;;;;;;8.45;3.90;;;;;;;;;;5402601;26;20014;-72
2024/04/11 01:53:46;;;;;;;7.95;4.45;;;;;;;;;;5397760;26;20376;-72
2024/04/11 01:56:11;;;;;;;9.77;4.85;;;;;;;;;;5401756;26;20000;-72
2024/04/11 01:58:36;;;;;;;7.82;3.58;;;;;;;;;;5401650;26;20010;-72
2024/04/11 02:01:05;;;;;;;8.23;4.50;;;;;;;;;;5409000;26;20460;-72
2024/04/11 02:03:33;;;;;;;7.20;4.13;;;;;;;;;;5406303;26;20007;-72
2024/04/11 02:06:03;;;;;;;7.15;4.30;;;;;;;;;;5403569;26;20015;-72
2024/04/11 02:08:29;;;;;;;7.13;4.05;;;;;;;;;;5400250;26;20007;-72
2024/04/11 02:10:54;;;;;;;9.30;5.22;;;;;;;;;;5403650;26;20003;-72
2024/04/11 02:13:19;;;;;;;7.28;4.05;;;;;;;;;;5412106;26;20004;-72
2024/04/11 02:15:45;;;;;;;8.82;5.00;;;;;;;;;;5409316;26;20035;-72
2024/04/11 02:18:10;;;;;;;7.60;4.65;;;;;;;;;;5403462;26;20003;-72
2024/04/11 02:20:35;;;;;;;7.78;4.57;;;;;;;;;;5401129;26;20352;-72
2024/04/11 02:23:01;;;;;;;7.10;4.38;;;;;;;;;;5406418;26;20456;-72
2024/04/11 02:25:26;;;;;;;9.60;5.20;;;;;;;;;;5407052;26;20012;-72
2024/04/11 02:27:53;;;;;;;12.15;5.07;;;;;;;;;;5409574;26;20015;-73
2024/04/11 02:30:18;;;;;;;8.15;4.22;;;;;;;;;;5408945;26;20007;-72
2024/04/11 02:32:43;;;;;;;5.65;3.92;;;;;;;;;;5406483;26;20100;-72
2024/04/11 02:35:11;;;;;;;6.95;4.68;;;;;;;;;;5402987;26;20352;-72
2024/04/11 02:37:36;;;;;;;10.00;5.28;;;;;;;;;;5407377;26;20024;-72
2024/04/11 02:40:02;;;;;;;7.50;4.95;;;;;;;;;;5411892;26;20015;-72
2024/04/11 02:42:27;;;;;;;8.65;5.10;;;;;;;;;;5405697;26;20000;-72
2024/04/11 02:44:53;;;;;;;6.55;4.35;;;;;;;;;;5403958;26;20449;-72
2024/04/11 02:47:20;;;;;;;9.65;5.60;;;;;;;;;;5405525;26;20080;-72
2024/04/11 02:49:45;;;;;;;10.57;5.65;;;;;;;;;;5396624;26;20074;-73
2024/04/11 02:52:13;;;;;;;12.88;6.07;;;;;;;;;;5407466;26;20015;-72
2024/04/11 02:54:39;;;;;;;11.02;6.00;;;;;;;;;;5404983;26;20004;-72
2024/04/11 02:57:05;;;;;;;8.55;5.20;;;;;;;;;;5407907;26;20004;-73
2024/04/11 02:59:30;;;;;;;10.68;5.47;;;;;;;;;;5381735;26;20077;-72
2024/04/11 03:01:57;;;;;;;6.90;4.72;;;;;;;;;;5404236;26;20008;-72
2024/04/11 03:04:22;;;;;;;11.68;5.68;;;;;;;;;;5400234;26;20018;-72
2024/04/11 03:06:47;;;;;;;8.60;4.90;;;;;;;;;;5403185;26;20000;-72
2024/04/11 03:09:13;;;;;;;7.85;4.90;;;;;;;;;;5411144;26;20521;-72
2024/04/11 03:11:38;;;;;;;8.45;4.55;;;;;;;;;;5410179;26;20000;-72
2024/04/11 03:14:05;;;;;;;8.95;5.20;;;;;;;;;;5403720;26;20008;-73
2024/04/11 03:16:31;;;;;;;8.35;4.68;;;;;;;;;;5400616;26;20018;-72
2024/04/11 03:18:57;;;;;;;7.20;4.57;;;;;;;;;;5393163;26;20007;-72
2024/04/11 03:21:23;;;;;;;10.63;4.35;;;;;;;;;;5405212;26;19995;-73
2024/04/11 03:23:48;;;;;;;7.57;4.90;;;;;;;;;;5400278;26;20006;-73
2024/04/11 03:26:14;;;;;;;9.10;5.07;;;;;;;;;;5389829;26;20008;-73
2024/04/11 03:28:39;;;;;;;8.80;4.65;;;;;;;;;;5397116;26;19996;-73
2024/04/11 03:31:05;;;;;;;8.45;4.90;;;;;;;;;;5389727;26;20007;-73
2024/04/11 03:33:31;;;;;;;8.38;5.03;;;;;;;;;;5399754;26;19996;-72
2024/04/11 03:35:56;;;;;;;7.10;4.47;;;;;;;;;;5407001;26;20716;-72
2024/04/11 03:38:24;;;;;;;7.78;4.88;;;;;;;;;;5397721;26;20008;-72
2024/04/11 03:40:53;;;;;;;7.80;5.10;;;;;;;;;;5393373;26;20001;-72
2024/04/11 03:43:19;;;;;;;9.32;5.45;;;;;;;;;;5386770;26;20028;-73
2024/04/11 03:45:46;;;;;;;7.15;4.85;;;;;;;;;;5387562;26;20114;-72
2024/04/11 03:48:11;;;;;;;7.55;4.35;;;;;;;;;;5412532;26;20003;-72
2024/04/11 03:50:37;;;;;;;6.60;4.35;;;;;;;;;;5398206;26;20356;-72
2024/04/11 03:53:05;;;;;;;10.80;5.90;;;;;;;;;;5397472;26;20007;-71
2024/04/11 03:55:31;;;;;;;10.93;6.00;;;;;;;;;;5404549;26;20072;-73
2024/04/11 03:57:58;;;;;;;9.43;5.18;;;;;;;;;;5391658;26;20016;-72
2024/04/11 04:00:24;;;;;;;9.57;5.07;;;;;;;;;;5391613;26;20012;-72
2024/04/11 04:02:50;;;;;;;8.73;4.60;;;;;;;;;;5397879;26;20451;-72
2024/04/11 04:05:15;;;;;;;8.38;5.68;;;;;;;;;;5394875;26;20000;-72
2024/04/11 04:07:41;;;;;;;8.10;4.93;;;;;;;;;;5397913;26;20546;-72
2024/04/11 04:10:06;;;;;;;8.48;4.75;;;;;;;;;;5386127;26;20000;-72
2024/04/11 04:12:32;;;;;;;10.02;5.47;;;;;;;;;;5388687;26;20006;-72
2024/04/11 04:14:57;;;;;;;9.30;5.40;;;;;;;;;;5381143;26;20004;-73
2024/04/11 04:17:23;;;;;;;15.10;5.10;;;;;;;;;;5406727;26;20120;-73
2024/04/11 04:19:49;;;;;;;10.18;5.57;;;;;;;;;;5411352;26;20068;-72
2024/04/11 04:22:16;;;;;;;11.07;6.10;;;;;;;;;;5412933;26;19998;-72
2024/04/11 04:24:41;;;;;;;8.73;5.55;;;;;;;;;;5409538;26;19999;-72
2024/04/11 04:27:06;;;;;;;9.23;5.03;;;;;;;;;;5409413;26;20004;-72
2024/04/11 04:29:32;;;;;;;9.98;6.38;;;;;;;;;;5411043;26;19999;-72
2024/04/11 04:31:57;;;;;;;8.75;5.57;;;;;;;;;;5407870;26;19988;-71
2024/04/11 04:34:23;;;;;;;8.73;4.70;;;;;;;;;;5397605;26;20105;-72
2024/04/11 04:36:49;;;;;;;8.25;5.40;;;;;;;;;;5405619;26;20000;-72
2024/04/11 04:39:16;;;;;;;9.90;5.82;;;;;;;;;;5391761;26;19996;-72
2024/04/11 04:41:41;;;;;;;9.90;5.50;;;;;;;;;;5396068;26;20061;-73
2024/04/11 04:44:07;;;;;;;11.90;5.82;;;;;;;;;;5397183;26;20023;-73
2024/04/11 04:46:32;;;;;;;11.15;5.43;;;;;;;;;;5395214;26;20000;-72
2024/04/11 04:49:00;;;;;;;10.77;5.38;;;;;;;;;;5397993;26;20007;-72
2024/04/11 04:51:26;;;;;;;11.57;6.13;;;;;;;;;;5383195;26;20011;-73
2024/04/11 04:53:52;;;;;;;10.25;5.13;;;;;;;;;;5396633;26;20032;-72
2024/04/11 04:56:22;;;;;;;10.10;5.43;;;;;;;;;;5394093;26;20015;-72
2024/04/11 04:58:49;;;;;;;8.95;4.88;;;;;;;;;;5396437;26;20031;-72
2024/04/11 05:01:15;;;;;;;13.25;5.80;;;;;;;;;;5396983;26;20452;-73
2024/04/11 05:03:41;;;;;;;9.60;5.53;;;;;;;;;;5399233;26;20570;-72
2024/04/11 05:06:12;;;;;;;11.50;6.25;;;;;;;;;;5408543;26;20018;-72
2024/04/11 05:08:37;;;;;;;7.40;4.95;;;;;;;;;;5399255;26;20004;-72
2024/04/11 05:11:11;;;;;;;11.93;5.75;;;;;;;;;;5391773;26;20004;-72
2024/04/11 05:13:37;;;;;;;12.18;6.55;;;;;;;;;;5407869;26;20496;-73
2024/04/11 05:16:06;;;;;;;10.48;6.05;;;;;;;;;;5401996;26;20012;-72
2024/04/11 05:18:38;;;;;;;11.40;6.60;;;;;;;;;;5388922;26;20085;-73
2024/04/11 05:21:07;;;;;;;13.48;6.68;;;;;;;;;;5385856;26;20015;-73
2024/04/11 05:23:33;;;;;;;11.50;5.45;;;;;;;;;;5392846;26;20043;-72
2024/04/11 05:25:59;;;;;;;10.07;5.20;;;;;;;;;;5403257;26;20011;-72
2024/04/11 05:28:34;;;;;;;9.93;6.28;;;;;;;;;;5401246;26;20000;-72
2024/04/11 05:31:00;;;;;;;14.95;9.23;;;;;;;;;;5391278;26;20015;-72
2024/04/11 05:33:25;;;;;;;15.52;8.88;;;;;;;;;;5397631;26;20023;-72
2024/04/11 05:35:50;;;;;;;15.25;8.75;;;;;;;;;;5384186;26;20341;-72
2024/04/11 05:38:15;;;;;;;14.98;8.68;;;;;;;;;;5407619;26;19995;-72
2024/04/11 05:40:41;;;;;;;16.10;8.70;;;;;;;;;;5392823;26;20036;-72
2024/04/11 05:43:07;;;;;;;11.88;7.47;;;;;;;;;;5395608;26;20064;-72
2024/04/11 05:45:33;;;;;;;12.70;8.00;;;;;;;;;;5401271;26;20007;-72
2024/04/11 05:48:00;;;;;;;13.85;7.20;;;;;;;;;;5405481;26;20010;-72
2024/04/11 05:50:25;;;;;;;13.68;7.38;;;;;;;;;;5382033;26;20000;-72
2024/04/11 05:52:51;;;;;;;9.27;6.50;;;;;;;;;;5396408;26;20001;-73
2024/04/11 05:55:16;;;;;;;10.13;6.72;;;;;;;;;;5405775;26;19992;-73
2024/04/11 05:57:44;;;;;;;12.13;7.53;;;;;;;;;;5402515;26;20002;-72
2024/04/11 06:00:11;;;;;;;8.85;6.05;;;;;;;;;;5403124;26;20340;-72
2024/04/11 06:02:40;;;;;;;11.85;6.15;;;;;;;;;;5391053;26;20472;-72
2024/04/11 06:05:06;;;;;;;10.65;6.72;;;;;;;;;;5388236;26;20483;-72
2024/04/11 06:07:31;;;;;;;15.88;9.68;;;;;;;;;;5400486;26;20373;-73
2024/04/11 06:09:58;;;;;;;12.15;6.63;;;;;;;;;;5392814;26;20047;-72
2024/04/11 06:12:23;;;;;;;11.40;6.30;;;;;;;;;;5390447;26;20320;-73
2024/04/11 06:14:48;;;;;;;9.52;6.15;;;;;;;;;;5368332;26;20014;-73
2024/04/11 06:17:14;;;;;;;11.07;5.13;;;;;;;;;;5394383;26;20007;-73
2024/04/11 06:19:39;;;;;;;12.88;6.68;;;;;;;;;;5380507;26;19997;-72
2024/04/11 06:22:06;;;;;;;9.20;5.05;;;;;;;;;;5404523;26;20037;-72
2024/04/11 06:24:35;;;;;;;9.50;5.70;;;;;;;;;;5393580;26;20001;-72
2024/04/11 06:27:00;;;;;;;10.82;5.43;;;;;;;;;;5400305;26;20345;-72
2024/04/11 06:29:26;;;;;;;14.90;5.30;;;;;;;;;;5385165;26;20011;-73
2024/04/11 06:31:53;;;;;;;7.97;4.88;;;;;;;;;;5389798;26;20077;-73
2024/04/11 06:34:18;;;;;;;8.52;5.32;;;;;;;;;;5399470;26;20022;-72
2024/04/11 06:36:49;;;;;;;11.05;6.07;;;;;;;;;;5398322;26;19995;-73
2024/04/11 06:39:17;;;;;;;9.95;4.63;;;;;;;;;;5393635;26;20035;-73
2024/04/11 06:41:42;;;;;;;7.70;4.70;;;;;;;;;;5386134;26;20004;-73
2024/04/11 06:44:08;;;;;;;8.98;4.95;;;;;;;;;;5406666;26;20024;-72
2024/04/11 06:46:33;;;;;;;12.60;6.47;;;;;;;;;;5396608;26;20006;-72
2024/04/11 06:48:58;;;;;;;9.63;4.55;;;;;;;;;;5391934;26;20000;-72
2024/04/11 06:51:25;;;;;;;9.95;4.53;;;;;;;;;;5394110;26;20023;-73
2024/04/11 06:53:51;;;;;;;7.55;4.57;;;;;;;;;;5389491;26;20495;-72
2024/04/11 06:56:18;;;;;;;12.90;5.75;;;;;;;;;;5393340;26;19991;-73
2024/04/11 06:58:45;;;;;;;9.45;5.05;;;;;;;;;;5389456;26;20060;-72
2024/04/11 07:01:13;;;;;;;10.30;5.05;;;;;;;;;;5386430;26;20011;-73
2024/04/11 07:03:40;;;;;;;9.07;4.45;;;;;;;;;;5406714;26;19997;-73
2024/04/11 07:09:03;;;;;;;8.63;4.18;;;;;;;;;;5392562;26;19996;-73
2024/04/11 07:11:32;;;;;;;6.70;3.80;;;;;;;;;;5394103;26;20349;-73
2024/04/11 07:14:05;;;;;;;8.10;4.18;;;;;;;;;;5381466;26;20008;-73
2024/04/11 07:16:32;;;;;;;9.73;4.50;;;;;;;;;;5395833;26;20072;-73
2024/04/11 07:18:58;;;;;;;8.10;4.45;;;;;;;;;;5395446;26;19996;-73
2024/04/11 07:21:26;;;;;;;17.60;8.43;;;;;;;;;;5394550;26;20003;-73
2024/04/11 07:23:55;;;;;;;15.05;5.40;;;;;;;;;;5397937;26;20014;-73
2024/04/11 07:26:30;;;;;;;12.55;5.57;;;;;;;;;;5385043;26;20012;-73
2024/04/11 07:28:55;;;;;;;11.63;4.43;;;;;;;;;;5380215;26;20001;-73
2024/04/11 07:31:21;;;;;;;8.18;3.25;;;;;;;;;;5396980;26;20019;-73
2024/04/11 07:33:48;;;;;;;7.63;4.40;;;;;;;;;;5395891;26;20004;-73
2024/04/11 07:36:14;;;;;;;7.78;3.78;;;;;;;;;;5390660;26;20028;-72
2024/04/11 07:38:40;;;;;;;9.77;4.07;;;;;;;;;;5392946;26;20000;-73
2024/04/11 07:41:16;;;;;;;6.90;3.58;;;;;;;;;;5383715;26;20004;-73
2024/04/11 07:43:49;;;;;;;8.85;3.28;;;;;;;;;;5380815;26;20514;-73
2024/04/11 07:46:14;;;;;;;7.57;3.30;;;;;;;;;;5392925;26;20440;-73
2024/04/11 07:48:51;;;;;;;7.35;3.42;;;;;;;;;;5396405;26;20012;-74
2024/04/11 07:51:17;;;;;;;9.60;2.83;;;;;;;;;;5387499;26;20006;-73
2024/04/11 07:53:46;;;;;;;6.80;2.83;;;;;;;;;;5390160;26;20076;-73
2024/04/11 07:56:21;;;;;;;7.47;3.10;;;;;;;;;;5381760;26;20015;-73
2024/04/11 07:58:50;;;;;;;7.97;2.90;;;;;;;;;;5403778;26;20481;-73
2024/04/11 08:01:15;;;;;;;11.93;5.13;;;;;;;;;;5390668;26;20003;-73
2024/04/11 08:03:41;;;;;;;9.35;3.72;;;;;;;;;;5391924;26;20768;-73
2024/04/11 08:06:10;;;;;;;13.07;5.15;;;;;;;;;;5385746;26;20547;-73
2024/04/11 08:08:36;;;;;;;10.25;4.13;;;;;;;;;;5386055;26;20004;-73
2024/04/11 08:11:06;;;;;;;8.68;4.82;;;;;;;;;;5378205;26;20495;-73
2024/04/11 08:13:32;;;;;;;9.30;4.78;;;;;;;;;;5393316;26;20015;-73
2024/04/11 08:15:57;;;;;;;8.93;4.38;;;;;;;;;;5389306;26;20000;-73
2024/04/11 08:18:24;;;;;;;10.40;5.22;;;;;;;;;;5401290;26;20452;-73
2024/04/11 08:20:49;;;;;;;7.53;3.45;;;;;;;;;;5381035;26;20007;-73
2024/04/11 08:23:18;;;;;;;11.27;4.78;;;;;;;;;;5382122;26;20016;-73
2024/04/11 08:25:44;;;;;;;11.05;4.82;;;;;;;;;;5385363;26;20018;-73
2024/04/11 08:28:11;;;;;;;6.53;2.92;;;;;;;;;;5401325;26;20004;-73
2024/04/11 08:30:36;;;;;;;7.40;2.97;;;;;;;;;;5391422;26;20003;-73
2024/04/11 08:33:05;;;;;;;9.60;5.03;;;;;;;;;;5398024;26;20007;-73
2024/04/11 08:35:32;;;;;;;8.65;3.17;;;;;;;;;;5380959;26;20081;-73
2024/04/11 08:37:59;;;;;;;6.90;2.63;;;;;;;;;;5391808;26;20476;-73
2024/04/11 08:40:24;;;;;;;7.10;3.20;;;;;;;;;;5388606;26;20073;-73
2024/04/11 08:42:49;;;;;;;5.68;2.63;;;;;;;;;;5388407;26;20008;-73
2024/04/11 08:45:15;;;;;;;4.05;1.88;;;;;;;;;;5391469;26;19999;-73
2024/04/11 08:47:40;;;;;;;6.13;2.20;;;;;;;;;;5390801;26;20019;-73
2024/04/11 08:50:06;;;;;;;6.20;2.80;;;;;;;;;;5382140;26;20014;-73
2024/04/11 08:52:34;;;;;;;5.35;3.42;;;;;;;;;;5378390;26;20007;-73
2024/04/11 08:54:59;;;;;;;5.03;1.42;;;;;;;;;;5392101;26;20015;-73
2024/04/11 08:57:27;;;;;;;6.57;1.80;;;;;;;;;;5397919;26;20080;-73
2024/04/11 08:59:53;;;;;;;8.48;2.70;;;;;;;;;;5392228;26;20439;-73
2024/04/11 09:02:18;;;;;;;5.43;1.70;;;;;;;;;;5393167;26;20077;-73
2024/04/11 09:04:43;;;;;;;9.38;4.20;;;;;;;;;;5382804;26;20004;-73
2024/04/11 09:07:20;;;;;;;5.10;1.33;;;;;;;;;;5388493;26;20011;-73
2024/04/11 09:09:46;;;;;;;3.85;1.52;;;;;;;;;;5396689;26;20004;-73
2024/04/11 09:12:14;;;;;;;4.00;1.67;;;;;;;;;;5394145;26;20016;-73
2024/04/11 09:14:40;;;;;;;4.85;1.55;;;;;;;;;;5390030;26;20439;-73
2024/04/11 09:17:06;;;;;;;3.90;0.98;;;;;;;;;;5392398;26;20351;-73
2024/04/11 09:19:39;;;;;;;4.15;1.08;;;;;;;;;;5379469;26;19992;-73
2024/04/11 09:22:08;;;;;;;4.72;1.52;;;;;;;;;;5386591;26;20004;-74
2024/04/11 09:24:34;;;;;;;3.55;1.08;;;;;;;;;;5389248;26;20011;-73
2024/04/11 09:27:04;;;;;;;2.70;0.85;;;;;;;;;;5395407;26;20356;-73
2024/04/11 09:29:29;;;;;;;6.93;1.58;;;;;;;;;;5389569;26;20044;-73
2024/04/11 09:31:56;;;;;;;3.25;1.20;;;;;;;;;;5380361;26;20040;-73
2024/04/11 09:34:26;;;;;;;7.18;1.40;;;;;;;;;;5391254;26;20067;-73
2024/04/11 09:36:52;;;;;;;5.75;2.40;;;;;;;;;;5402194;26;19996;-73
2024/04/11 09:39:41;;;;;;;6.38;2.50;;;;;;;;;;5392037;26;20037;-73
2024/04/11 09:42:11;;;;;;;4.18;1.40;;;;;;;;;;5386565;26;20005;-73
2024/04/11 09:44:41;;;;;;;4.68;1.60;;;;;;;;;;5380883;26;20014;-73
2024/04/11 09:47:09;;;;;;;6.45;2.10;;;;;;;;;;5384852;26;20043;-73
2024/04/11 09:49:37;;;;;;;5.40;2.17;;;;;;;;;;5397229;26;19996;-73
2024/04/11 09:52:03;;;;;;;5.95;1.45;;;;;;;;;;5402197;26;20015;-73
2024/04/11 09:54:28;;;;;;;9.38;2.03;;;;;;;;;;5397718;26;20053;-74
2024/04/11 09:56:56;;;;;;;4.72;1.50;;;;;;;;;;5398011;26;20475;-73
2024/04/11 09:59:21;;;;;;;6.07;1.55;;;;;;;;;;5388448;26;20022;-73
2024/04/11 10:01:48;;;;;;;4.82;1.90;;;;;;;;;;5394606;26;20000;-73
2024/04/11 10:04:24;;;;;;;6.20;1.77;;;;;;;;;;5398051;26;20011;-73
2024/04/11 10:06:52;;;;;;;6.25;2.22;;;;;;;;;;5394804;26;20007;-73
2024/04/11 10:09:17;;;;;;;9.30;2.03;;;;;;;;;;5393875;26;20000;-73
2024/04/11 10:11:47;;;;;;;5.53;1.48;;;;;;;;;;5393894;26;20457;-73
2024/04/11 10:14:28;;;;;;;5.47;1.80;;;;;;;;;;5389395;26;20088;-73
2024/04/11 10:17:01;;;;;;;6.50;1.75;;;;;;;;;;5387912;26;19992;-73
2024/04/11 10:19:26;;;;;;;4.60;1.60;;;;;;;;;;5408024;26;20031;-73
2024/04/11 10:21:54;;;;;;;7.00;2.22;;;;;;;;;;5414597;26;20014;-73
2024/04/11 10:24:27;;;;;;;5.65;2.30;;;;;;;;;;5406518;26;20007;-73
2024/04/11 10:26:54;;;;;;;5.88;1.38;;;;;;;;;;5410170;26;20006;-73
2024/04/11 10:29:20;;;;;;;4.18;1.55;;;;;;;;;;5401716;26;20011;-73
2024/04/11 10:31:47;;;;;;;5.95;1.45;;;;;;;;;;5413391;26;20413;-73
2024/04/11 10:34:19;;;;;;;5.22;1.38;;;;;;;;;;5404667;26;20504;-74
2024/04/11 10:36:52;;;;;;;7.28;1.60;;;;;;;;;;5396647;26;20027;-74
2024/04/11 10:39:18;;;;;;;4.95;1.35;;;;;;;;;;5389182;26;20011;-73
2024/04/11 10:41:45;;;;;;;5.65;1.40;;;;;;;;;;5395859;26;20543;-73
2024/04/11 10:44:11;;;;;;;4.03;1.15;;;;;;;;;;5408516;26;20004;-73
2024/04/11 10:46:38;;;;;;;3.45;1.10;;;;;;;;;;5412679;26;20014;-73
2024/04/11 10:49:12;;;;;;;5.22;1.15;;;;;;;;;;5407228;26;20008;-73
2024/04/11 10:51:41;;;;;;;4.93;1.40;;;;;;;;;;5398769;26;20051;-73
2024/04/11 10:54:09;;;;;;;2.50;1.08;;;;;;;;;;5389623;26;20076;-74
2024/04/11 10:56:42;;;;;;;4.57;1.40;;;;;;;;;;5403421;26;20004;-73
2024/04/11 10:59:22;;;;;;;4.22;1.30;;;;;;;;;;5405263;26;20511;-73
2024/04/11 11:01:57;;;;;;;4.05;1.23;;;;;;;;;;5389530;26;20527;-74
2024/04/11 11:04:25;;;;;;;7.25;1.27;;;;;;;;;;5403517;26;19999;-74
2024/04/11 11:06:54;;;;;;;4.55;1.35;;;;;;;;;;5389301;26;19999;-74
2024/04/11 11:09:21;;;;;;;2.75;1.25;;;;;;;;;;5388960;26;20368;-73
2024/04/11 11:11:46;;;;;;;3.42;1.23;;;;;;;;;;5398193;26;20000;-73
2024/04/11 11:14:17;;;;;;;3.75;1.20;;;;;;;;;;5403062;26;20010;-73
2024/04/11 11:16:44;;;;;;;5.93;1.75;;;;;;;;;;5409883;26;20142;-73
2024/04/11 11:19:13;;;;;;;6.38;1.48;;;;;;;;;;5390296;26;20008;-74
2024/04/11 11:21:42;;;;;;;7.53;2.00;;;;;;;;;;5389250;26;20012;-74
2024/04/11 11:24:13;;;;;;;3.30;1.40;;;;;;;;;;5381664;26;20651;-73
2024/04/11 11:26:43;;;;;;;12.90;2.50;;;;;;;;;;5386000;26;20011;-74
2024/04/11 11:29:09;;;;;;;6.45;1.70;;;;;;;;;;5394652;26;21030;-74
2024/04/11 11:31:38;;;;;;;3.45;1.17;;;;;;;;;;5397032;26;20000;-74
2024/04/11 11:34:09;;;;;;;4.78;1.27;;;;;;;;;;5393997;26;20085;-73
2024/04/11 11:36:35;;;;;;;4.35;1.30;;;;;;;;;;5382416;26;20504;-74
2024/04/11 11:39:04;;;;;;;6.13;1.65;;;;;;;;;;5383125;26;20024;-73
2024/04/11 11:41:30;;;;;;;3.88;1.50;;;;;;;;;;5394030;26;20008;-73
2024/04/11 11:43:56;;;;;;;5.35;1.60;;;;;;;;;;5394159;26;20458;-74
2024/04/11 11:46:27;;;;;;;4.72;1.58;;;;;;;;;;5393689;26;20003;-73
2024/04/11 11:48:54;;;;;;;5.75;1.60;;;;;;;;;;5397895;26;20054;-73
2024/04/11 11:51:19;;;;;;;9.13;1.92;;;;;;;;;;5383432;26;20000;-74
2024/04/11 11:53:49;;;;;;;8.80;1.60;;;;;;;;;;5393375;26;20004;-74
2024/04/11 11:56:14;;;;;;;5.72;1.60;;;;;;;;;;5395324;26;20008;-74
2024/04/11 11:58:43;;;;;;;5.38;1.40;;;;;;;;;;5391516;26;20069;-73
2024/04/11 12:04:07;;;;;;;3.92;1.15;;;;;;;;;;5384658;26;20015;-74
2024/04/11 12:06:34;;;;;;;5.55;1.58;;;;;;;;;;5381854;26;20000;-74
2024/04/11 12:09:10;;;;;;;4.32;1.27;;;;;;;;;;5394746;26;19996;-73
2024/04/11 12:12:07;;;;;;;4.68;1.67;;;;;;;;;;5393311;26;20022;-74
2024/04/11 12:14:34;;;;;;;7.30;1.38;;;;;;;;;;5387587;26;19996;-74
2024/04/11 12:17:04;;;;;;;4.68;1.30;;;;;;;;;;5392486;26;20438;-74
2024/04/11 12:19:29;;;;;;;3.95;1.27;;;;;;;;;;5386289;26;20015;-74
2024/04/11 12:21:55;;;;;;;6.55;1.60;;;;;;;;;;5390727;26;20008;-73
2024/04/11 12:24:21;;;;;;;5.72;1.58;;;;;;;;;;5395873;26;20369;-74
2024/04/11 12:26:49;;;;;;;5.57;1.23;;;;;;;;;;5387272;26;20015;-74
2024/04/11 12:29:15;;;;;;;5.53;1.92;;;;;;;;;;5395099;26;20055;-74
2024/04/11 12:31:43;;;;;;;5.43;2.25;;;;;;;;;;5382084;26;20000;-74
2024/04/11 12:34:09;;;;;;;4.28;1.60;;;;;;;;;;5380237;26;20475;-74
2024/04/11 12:36:51;;;;;;;5.13;1.33;;;;;;;;;;5391454;26;19996;-74
2024/04/11 12:39:21;;;;;;;12.25;3.05;;;;;;;;;;5395079;26;20040;-74
2024/04/11 12:41:48;;;;;;;5.95;1.17;;;;;;;;;;5396581;26;20000;-74
2024/04/11 12:44:13;;;;;;;4.63;1.20;;;;;;;;;;5385692;26;20004;-74
2024/04/11 12:46:56;;;;;;;5.73;1.60;;;;;;;;;;5380568;26;20015;-74
2024/04/11 12:49:29;;;;;;;4.35;1.38;;;;;;;;;;5385006;26;20589;-74
2024/04/11 12:51:55;;;;;;;5.45;1.33;;;;;;;;;;5390363;26;20004;-74
2024/04/11 12:54:26;;;;;;;3.63;1.27;;;;;;;;;;5391474;26;20474;-74
2024/04/11 12:57:04;;;;;;;4.57;1.40;;;;;;;;;;5394171;26;20004;-74
2024/04/11 12:59:30;;;;;;;4.25;1.88;;;;;;;;;;5392557;26;20044;-74
2024/04/11 13:01:58;;;;;;;2.90;1.25;;;;;;;;;;5384793;26;20448;-74
2024/04/11 13:04:28;;;;;;;4.50;1.85;;;;;;;;;;5396104;26;20003;-74
2024/04/11 13:06:58;;;;;;;5.32;1.45;;;;;;;;;;5399708;26;20000;-74
2024/04/11 13:09:31;;;;;;;4.30;1.45;;;;;;;;;;5390885;26;20000;-74
2024/04/11 13:12:00;;;;;;;4.95;1.45;;;;;;;;;;5390452;26;20000;-74
2024/04/11 13:14:27;;;;;;;5.78;1.27;;;;;;;;;;5384806;26;20414;-74
2024/04/11 13:17:00;;;;;;;5.80;1.55;;;;;;;;;;5387752;26;20000;-74
2024/04/11 13:19:34;;;;;;;7.43;1.73;;;;;;;;;;5402389;26;20008;-74
2024/04/11 13:22:02;;;;;;;4.35;1.38;;;;;;;;;;5396487;26;20103;-74
2024/04/11 13:24:45;;;;;;;13.07;2.40;;;;;;;;;;5395175;26;20019;-74
2024/04/11 13:27:14;;;;;;;3.90;1.35;;;;;;;;;;5392096;26;20364;-74
2024/04/11 13:29:40;;;;;;;4.30;1.23;;;;;;;;;;5388384;26;20096;-74
2024/04/11 13:32:05;;;;;;;3.13;1.00;;;;;;;;;;5393795;26;20007;-74
2024/04/11 13:34:40;;;;;;;3.40;1.20;;;;;;;;;;5395417;26;20000;-74
2024/04/11 13:37:07;;;;;;;5.35;1.45;;;;;;;;;;5390897;26;20000;-74
2024/04/11 13:39:43;;;;;;;3.97;1.20;;;;;;;;;;5394895;26;20363;-74
2024/04/11 13:42:13;;;;;;;5.03;1.58;;;;;;;;;;5403114;26;20000;-74
2024/04/11 13:44:39;;;;;;;2.65;1.10;;;;;;;;;;5404268;26;20101;-74
2024/04/11 13:47:09;;;;;;;6.75;1.33;;;;;;;;;;5409296;26;20003;-74
2024/04/11 13:49:40;;;;;;;3.67;1.23;;;;;;;;;;5411822;26;20094;-74
2024/04/11 13:52:26;;;;;;;4.47;1.23;;;;;;;;;;5405437;26;20817;-74
2024/04/11 13:54:51;;;;;;;5.55;1.30;;;;;;;;;;5403438;26;20000;-74
2024/04/11 13:57:20;;;;;;;3.70;1.00;;;;;;;;;;5404333;26;20000;-74
2024/04/11 13:59:50;;;;;;;3.92;1.20;;;;;;;;;;5398438;26;19996;-74
2024/04/11 14:02:38;;;;;;;3.17;1.33;;;;;;;;;;5400733;26;20556;-74
2024/04/11 14:05:09;;;;;;;3.63;1.20;;;;;;;;;;5388292;26;20780;-74
2024/04/11 14:07:34;;;;;;;3.42;1.10;;;;;;;;;;5407067;26;20008;-75
2024/04/11 14:09:59;;;;;;;3.75;1.17;;;;;;;;;;5392138;26;19996;-77
2024/04/11 14:12:24;;;;;;;3.60;1.00;;;;;;;;;;5400690;26;19992;-75
2024/04/11 14:14:51;;;;;;;4.27;1.23;;;;;;;;;;5412072;26;20529;-75
2024/04/11 14:17:22;;;;;;;3.10;1.15;;;;;;;;;;5409207;26;20241;-75
2024/04/11 14:20:19;;;;;;;3.53;1.40;;;;;;;;;;5391626;26;20461;-74
2024/04/11 14:22:47;;;;;;;3.35;0.90;;;;;;;;;;5401269;26;20014;-74
2024/04/11 14:27:43;;;;;;;6.75;1.88;;;;;;;;;;5407751;26;20004;-75
2024/04/11 14:30:08;;;;;;;5.38;1.30;;;;;;;;;;5410725;26;20356;-75
2024/04/11 14:33:09;;;;;;;3.60;0.82;;;;;;;;;;5406251;26;20023;-75
2024/04/11 14:37:56;;;;;;;3.07;1.10;;;;;;;;;;5403982;26;20003;-75
2024/04/11 14:40:22;;;;;;;6.00;1.70;;;;;;;;;;5401555;26;20245;-74
2024/04/11 14:42:49;;;;;;;4.10;1.05;;;;;;;;;;5413470;26;19999;-74
2024/04/11 14:45:14;;;;;;;3.92;1.35;;;;;;;;;;5406703;26;20015;-74
2024/04/11 14:47:40;;;;;;;2.58;0.88;;;;;;;;;;5408494;26;20044;-74
2024/04/11 14:50:06;;;;;;;8.48;1.70;;;;;;;;;;5405597;26;20019;-75
2024/04/11 14:52:31;;;;;;;5.45;0.95;;;;;;;;;;5401270;26;20003;-75
2024/04/11 14:54:57;;;;;;;7.40;1.03;;;;;;;;;;5400551;26;20067;-75